首页
METAR-TAF:

METAR-TAF

机场 :

奥拉迪亚, 罗马尼亚

纬度: 47-03N, 经度: 021-56E, 海拔: 135米

当前天气观测

该预报发布于19分钟前的07:30 UTC
风速6节,风向
温度 22°C
湿度 73%
气压 1013 hPa
能见度10公里或以上
1500米以下无云,无积雨云

METAR: LROD 150730Z 19006KT CAVOK 22/17 Q1013

时间: 10:49 (07:49 UTC)

预报

该预报发布于2小时和49分钟前的05:00 UTC
预报有效从15日的 06点(UTC)到 15日的 15点(UTC)
风速4节,风向多变
能见度10公里或以上
1500米以下无云,无积雨云
几率 30% :
短暂存在
从 15日的 06点(UTC)到 15日的 09点(UTC)
能見度: 5000
散云层高于4500英尺, 积雨云.
雷暴, 小雨
成为
从 15日的 09点(UTC)到 15日的 11点(UTC)
风速10节,风向东转东北
短暂存在
从 15日的 11点(UTC)到 15日的 15点(UTC)
风速15节,风向多变,有时为25节阵风
能見度: 3000
多云层高于1000英尺
多云层高于4000英尺, 积雨云.
雷暴, 雨

TAF: LROD 150500Z 1506/1515 VRB04KT CAVOK PROB30 TEMPO 1506/1509 5000 -TSRA SCT045CB BECMG 1509/1511 06010KT TEMPO 1511/1515 VRB15G25KT 3000 TSRA BKN010 BKN040CB

超过4000个机场的气象观测和天气预报(METAR&TAF报告)。

可查询的气象台以黄色和红色小点在地图上表示。

将鼠标移到小点上方,可查看气象台名称。

然后点击查看天气观测和预报。

如需切换地图:点击带黑十字的绿色按钮放大地图;点击带横线的绿色按钮缩小地图;或者点击绿色箭头查看邻近地区的地图。


METAR-TAF: